METAR stanice u blizini

 

LYBE - Beograd / Surčin, Srbija
Ažurirano: 28/11/2021 13:00
Vedro
Vedro
 Pravac vetra JJI
Vetar: JJI 22 km/h
Temperatura: 18°C
Tačka rose: 6°C
Vlažnost: 46%
Pritisak: 995 hPa
Pregled: Vedro
Vidljivost: greater than 10 km
2021/11/28 12:00 LYBE 281200Z 16012KT CAVOK 18/06 Q0995 NOSIG
LYBT - Beograd / Batajnica, Srbija
Ažurirano: 28/11/2021 13:00
Vedro
Vedro
 Pravac vetra I
Vetar: I 22 km/h
Temperatura: 17°C
Tačka rose: 7°C
Vlažnost: 52%
Pritisak: 995 hPa
Pregled: Vedro
Vidljivost: greater than 10 km
2021/11/28 12:00 LYBT 281200Z 10012KT CAVOK 17/07 Q0995 NOSIG
LYVR - Vršac, Srbija
Ažurirano: 28/11/2021 13:00
Vedro
Vedro
 Pravac vetra JI
Vetar: JI 31 km/h
Temperatura: 17°C
Tačka rose: 7°C
Vlažnost: 52%
Pritisak: 996 hPa
Pregled: Vedro
Vidljivost: greater than 10 km
2021/11/28 12:00 LYVR 281200Z AUTO 14017KT 110V170 CAVOK 17/07 Q0996
 
LYKV - Lađevci, Srbija
Ažurirano: 28/11/2021 13:00
Partly Cloudy
Partly Cloudy
 Pravac vetra JI
Vetar: JI 26 km/h
Temperatura: 17°C
Tačka rose: 6°C
Vlažnost: 49%
Pritisak: 996 hPa
Oblaci: Partly Cloudy
Vidljivost: 10 km
Cloud details: Partly Cloudy 1524 m
2021/11/28 12:00 LYKV 281200Z 14014KT 120V180 9999 SCT050 17/06 Q0996 NOSIG
LYNI - Niš, Srbija
Ažurirano: 28/11/2021 13:00
Partly Cloudy
Partly Cloudy
 Pravac vetra JJI
Vetar: JJI 11 km/h
Temperatura: 16°C
Tačka rose: 5°C
Vlažnost: 48%
Pritisak: 1000 hPa
Oblaci: Partly Cloudy
Vidljivost: 10 km
Cloud details: Few Clouds 1219 m
Partly Cloudy 1524 m
2021/11/28 12:00 LYNI 281200Z 15006KT 110V200 9999 FEW040 SCT050 16/05 Q1000 NOSIG
BKPR - Priština, Srbija
Ažurirano: 28/11/2021 13:30
Mostly Cloudy
Mostly Cloudy
 Pravac vetra JJI
Vetar: JJI 13 km/h
Temperatura: 15°C
Tačka rose: 7°C
Vlažnost: 59%
Pritisak: 1000 hPa
Oblaci: Mostly Cloudy
Vidljivost: 10 km
Cloud details: Partly Cloudy 1219 m
Mostly Cloudy 5182 m
2021/11/28 12:30 BKPR 281230Z 15007KT 9999 SCT040 BKN170 15/07 Q1000 NOSIG
 
LHPP - Pecs / Pogany, Hungary
Ažurirano: 28/11/2021 13:11
Slaba kiša, Thunderstorm
Slaba kiša, Thunderstorm
 Pravac vetra ZSZ
Vetar: ZSZ 22 km/h
Temperatura: 8°C
Osećaj hladnoće: 4°C
Tačka rose: 8°C
Vlažnost: 100%
Pritisak: 995 hPa
Pregled: Light Rain
Oblaci: Thunderstorm
Vidljivost: 7 km
Cloud details: Oblačno 152 m
2021/11/28 12:11 LHPP 281211Z AUTO 30012KT 7000 -RA OVC005 //////CB 08/08 Q0995 RERA
LHUD - Szeged, Hungary
Ažurirano: 04/07/2019 01:45
NOT Current
Vedro
Vedro
 Pravac vetra S
Vetar: S 7 km/h
Temperatura: 18°C
Tačka rose: 13°C
Vlažnost: 73%
Pritisak: 1019 hPa
Pregled: Vedro
Vidljivost: greater than 10 km
2019/07/03 23:45 LHUD 032345Z 35004KT CAVOK 18/13 Q1019
LRTR - Timisoara, Romania
Ažurirano: 28/11/2021 13:00
Vedro
Vedro
 Pravac vetra J
Vetar: J 24 km/h
Temperatura: 15°C
Tačka rose: 7°C
Vlažnost: 59%
Pritisak: 996 hPa
Pregled: Vedro
Vidljivost: greater than 10 km
2021/11/28 12:00 LRTR 281200Z 18013KT CAVOK 15/07 Q0996
 
LRCV - Craiova, Romania
Ažurirano: 28/11/2021 13:00
Vedro
Vedro
 Pravac vetra JI
Vetar: JI 9 km/h
Temperatura: 14°C
Tačka rose: 7°C
Vlažnost: 63%
Pritisak: 1001 hPa
Pregled: Vedro
Vidljivost: greater than 10 km
2021/11/28 12:00 LRCV 281200Z 14005KT CAVOK 14/07 Q1001
LBSF - Sofia, Bulgaria
Ažurirano: 28/11/2021 13:00
Few Clouds
Few Clouds
 Pravac vetra SSI
Vetar: SSI 9 km/h
Temperatura: 14°C
Tačka rose: 4°C
Vlažnost: 51%
Pritisak: 1002 hPa
Oblaci: Few Clouds
Vidljivost: 10 km
Cloud details: Few Clouds 1981 m
2021/11/28 12:00 LBSF 281200Z 03005KT 9999 FEW065 14/04 Q1002 WS ALL RWY NOSIG
LWSK - Skoplje, Makedonija
Ažurirano: 28/11/2021 13:00
Few Clouds
Few Clouds
 Pravac vetra JI
Vetar: JI 19 km/h
Temperatura: 17°C
Tačka rose: 8°C
Vlažnost: 56%
Pritisak: 1001 hPa
Oblaci: Few Clouds
Vidljivost: 10 km
Cloud details: Few Clouds 1524 m
2021/11/28 12:00 LWSK 281200Z 14010KT 100V180 9999 FEW050 17/08 Q1001 NOSIG
 
LYPG - Podgorica, Crna Gora
Ažurirano: 28/11/2021 13:00
Oblačno
Oblačno
 Pravac vetra JI
Vetar: JI 31 km/h
Temperatura: 16°C
Tačka rose: 9°C
Vlažnost: 63%
Pritisak: 1000 hPa
Oblaci: Oblačno
Vidljivost: 10 km
Cloud details: Few Clouds 823 m
Mostly Cloudy 1219 m
Oblačno 2438 m
2021/11/28 12:00 LYPG 281200Z 14017KT 9999 FEW027 BKN040 OVC080 16/09 Q1000 NOSIG
LQSA - Sarajevo, Bosna i Hercegovina
Ažurirano: 28/11/2021 13:00
Slaba kiša, Pretežno oblačno
Slaba kiša, Pretežno oblačno
 Pravac vetra JI
Vetar: JI 13 km/h
Temperatura: 11°C
Tačka rose: 8°C
Vlažnost: 82%
Pritisak: 995 hPa
Pregled: Light Rain
Oblaci: Mostly Cloudy
Vidljivost: 10 km
Cloud details: Few Clouds 518 m
Mostly Cloudy 1219 m
2021/11/28 12:00 LQSA 281200Z 13007KT 100V190 9999 -RA FEW017 BKN040 11/08 Q0995 NOSIG
LDOS - Osijek, Hrvatksa
Ažurirano: 28/11/2021 13:00
Few Clouds
Few Clouds
 Pravac vetra JI
Vetar: JI 19 km/h
Temperatura: 12°C
Tačka rose: 8°C
Vlažnost: 77%
Pritisak: 993 hPa
Oblaci: Few Clouds
Vidljivost: 10 km
Cloud details: Few Clouds 1311 m
2021/11/28 12:00 LDOS 281200Z 14010KT 9999 FEW043 12/08 Q0993